createdAt,value
2019-03-15T00:01:44.684Z,49.60
2019-03-15T00:04:40.368Z,49.20
2019-03-15T00:07:36.541Z,49.30
2019-03-15T00:10:25.630Z,49.50
2019-03-15T00:13:08.289Z,49.60
2019-03-15T00:16:03.758Z,49.60
2019-03-15T00:18:59.406Z,49.00
2019-03-15T00:21:49.479Z,48.50
2019-03-15T00:24:32.500Z,47.70
2019-03-15T00:27:22.974Z,47.70
2019-03-15T00:29:59.852Z,48.40
2019-03-15T00:32:51.540Z,48.90
2019-03-15T00:35:28.158Z,48.90
2019-03-15T00:38:18.119Z,49.90
2019-03-15T00:40:54.226Z,50.20
2019-03-15T00:43:45.251Z,50.70
2019-03-15T00:46:21.617Z,50.20
2019-03-15T00:49:12.544Z,50.00
2019-03-15T00:51:56.270Z,50.00
2019-03-15T00:54:51.888Z,50.50
2019-03-15T00:57:41.219Z,54.50
2019-03-15T01:00:31.240Z,57.90
2019-03-15T01:03:20.851Z,59.50
2019-03-15T01:05:57.829Z,60.30
2019-03-15T01:08:47.687Z,60.40
2019-03-15T01:11:24.559Z,61.10
2019-03-15T01:14:20.992Z,61.50
2019-03-15T01:17:09.961Z,63.80
2019-03-15T01:19:46.388Z,66.00
2019-03-15T01:22:37.015Z,68.70
2019-03-15T01:25:16.327Z,70.80
2019-03-15T01:28:05.889Z,72.20
2019-03-15T01:30:42.732Z,73.10
2019-03-15T01:33:32.493Z,74.60
2019-03-15T01:36:15.429Z,75.60
2019-03-15T01:38:59.311Z,75.50
2019-03-15T01:41:41.639Z,76.00
2019-03-15T01:44:24.621Z,78.30
2019-03-15T01:47:19.725Z,79.70
2019-03-15T01:50:11.408Z,79.80
2019-03-15T01:52:48.188Z,78.10
2019-03-15T01:55:37.620Z,78.50
2019-03-15T01:58:13.732Z,77.90
2019-03-15T02:01:04.516Z,77.40
2019-03-15T02:03:42.324Z,78.50
2019-03-15T02:06:32.421Z,78.50
2019-03-15T02:09:14.677Z,77.00
2019-03-15T02:11:58.034Z,75.60
2019-03-15T02:14:54.475Z,74.60
2019-03-15T02:17:49.409Z,73.50
2019-03-15T02:20:39.585Z,72.10
2019-03-15T02:23:16.015Z,71.90
2019-03-15T02:26:05.194Z,71.30
2019-03-15T02:28:43.148Z,70.70
2019-03-15T02:31:32.708Z,71.20
2019-03-15T02:34:09.512Z,72.10
2019-03-15T02:36:59.926Z,71.50
2019-03-15T02:39:42.913Z,70.80
2019-03-15T02:42:26.417Z,71.70
2019-03-15T02:45:10.020Z,71.40
2019-03-15T02:47:53.209Z,71.80
2019-03-15T02:50:36.307Z,72.60
2019-03-15T02:53:20.081Z,72.70
2019-03-15T02:56:03.026Z,72.60
2019-03-15T02:58:46.648Z,73.50
2019-03-15T03:01:29.713Z,74.70
2019-03-15T03:04:14.547Z,75.10
2019-03-15T03:06:57.754Z,74.70
2019-03-15T03:09:48.228Z,76.60
2019-03-15T03:12:25.176Z,79.80
2019-03-15T03:15:22.454Z,82.20
2019-03-15T03:18:12.341Z,83.30
2019-03-15T03:20:50.313Z,84.10
2019-03-15T03:23:41.378Z,85.80
2019-03-15T03:26:19.128Z,86.70
2019-03-15T03:29:09.610Z,87.40
2019-03-15T03:31:52.711Z,87.60
2019-03-15T03:34:37.255Z,87.20
2019-03-15T03:37:20.582Z,87.00
2019-03-15T03:40:03.699Z,86.10
2019-03-15T03:42:52.753Z,84.80
2019-03-15T03:45:36.380Z,83.40
2019-03-15T03:48:19.127Z,84.00
2019-03-15T03:51:05.388Z,85.00
2019-03-15T03:53:49.461Z,86.20
2019-03-15T03:56:33.201Z,86.20
2019-03-15T03:59:22.657Z,86.10
2019-03-15T04:02:06.322Z,87.20
2019-03-15T04:04:49.897Z,88.20
2019-03-15T04:07:33.421Z,86.80
2019-03-15T04:10:17.580Z,85.10
2019-03-15T04:13:10.026Z,84.60
2019-03-15T04:15:47.160Z,85.80
2019-03-15T04:18:44.681Z,86.50
2019-03-15T04:21:39.843Z,85.10
2019-03-15T04:24:30.904Z,85.40
2019-03-15T04:27:07.700Z,86.80
2019-03-15T04:29:58.133Z,84.70
2019-03-15T04:32:34.502Z,84.90
2019-03-15T04:35:24.167Z,85.00
2019-03-15T04:38:07.234Z,84.30
2019-03-15T04:40:57.329Z,83.90
2019-03-15T04:43:40.840Z,84.00
2019-03-15T04:46:38.124Z,84.00
2019-03-15T04:49:28.171Z,85.10
2019-03-15T04:52:04.947Z,85.20
2019-03-15T04:54:56.254Z,84.70
2019-03-15T04:57:32.887Z,85.50
2019-03-15T05:00:23.590Z,85.70
2019-03-15T05:03:00.032Z,85.50
2019-03-15T05:06:02.463Z,84.50
2019-03-15T05:08:28.660Z,84.00
2019-03-15T05:11:19.071Z,85.30
2019-03-15T05:13:58.545Z,84.90
2019-03-15T05:16:47.340Z,84.10
2019-03-15T05:19:30.552Z,84.30
2019-03-15T05:22:26.420Z,85.90
2019-03-15T05:25:22.018Z,85.70
2019-03-15T05:28:11.284Z,84.10
2019-03-15T05:31:00.542Z,86.00
2019-03-15T05:33:43.560Z,85.80
2019-03-15T05:36:32.570Z,84.10
2019-03-15T05:39:22.197Z,84.40
2019-03-15T05:41:58.398Z,84.30
2019-03-15T05:44:49.124Z,83.60
2019-03-15T05:47:25.165Z,83.30
2019-03-15T05:50:18.131Z,83.10
2019-03-15T05:53:01.809Z,83.00
2019-03-15T05:55:50.977Z,82.80
2019-03-15T05:58:27.349Z,82.70
2019-03-15T06:01:18.371Z,83.20
2019-03-15T06:03:54.856Z,83.70
2019-03-15T06:06:43.835Z,83.50
2019-03-15T06:09:20.995Z,85.00
2019-03-15T06:12:10.574Z,84.50
2019-03-15T06:14:47.319Z,83.70
2019-03-15T06:17:36.917Z,83.70
2019-03-15T06:20:18.595Z,84.00
2019-03-15T06:23:08.635Z,83.40
2019-03-15T06:25:45.182Z,83.40
2019-03-15T06:28:35.391Z,84.50
2019-03-15T06:31:12.395Z,83.40
2019-03-15T06:34:01.973Z,83.00
2019-03-15T06:36:46.567Z,83.00
2019-03-15T06:39:38.815Z,81.80
2019-03-15T06:42:21.821Z,80.90
2019-03-15T06:45:16.965Z,81.80
2019-03-15T06:47:53.869Z,80.50
2019-03-15T06:50:44.208Z,79.00
2019-03-15T06:53:27.768Z,77.80
2019-03-15T06:56:17.504Z,77.00
2019-03-15T06:58:53.722Z,76.60
2019-03-15T07:01:43.931Z,76.90
2019-03-15T07:04:20.663Z,76.60
2019-03-15T07:07:11.080Z,76.40
2019-03-15T07:09:54.358Z,75.10
2019-03-15T07:12:50.021Z,74.10
2019-03-15T07:15:40.009Z,73.50
2019-03-15T07:18:18.925Z,73.70
2019-03-15T07:21:15.669Z,74.90
2019-03-15T07:24:24.083Z,75.10
2019-03-15T07:27:13.132Z,72.60
2019-03-15T07:30:05.371Z,72.30
2019-03-15T07:32:54.544Z,67.90
2019-03-15T07:35:39.216Z,68.20
2019-03-15T07:38:36.772Z,68.30
2019-03-15T07:41:26.551Z,66.80
2019-03-15T07:44:03.472Z,63.80
2019-03-15T07:46:54.083Z,61.20
2019-03-15T07:49:30.130Z,59.70
2019-03-15T07:52:20.486Z,57.80
2019-03-15T07:55:03.596Z,57.30
2019-03-15T07:57:52.912Z,56.70
2019-03-15T08:00:29.504Z,55.70
2019-03-15T08:03:20.190Z,57.00
2019-03-15T08:06:02.669Z,58.00
2019-03-15T08:08:46.101Z,57.60
2019-03-15T08:11:30.004Z,57.50
2019-03-15T08:14:12.711Z,58.60
2019-03-15T08:17:02.102Z,58.80
2019-03-15T08:19:44.801Z,59.90
2019-03-15T08:22:41.462Z,60.50
2019-03-15T08:25:37.953Z,60.40
2019-03-15T08:28:33.064Z,60.10
2019-03-15T08:31:23.406Z,61.70
2019-03-15T08:34:00.136Z,62.10
2019-03-15T08:36:50.665Z,62.40
2019-03-15T08:39:26.572Z,61.50
2019-03-15T08:42:16.796Z,61.30
2019-03-15T08:44:53.669Z,62.60
2019-03-15T08:47:43.527Z,62.10
2019-03-15T08:50:24.612Z,60.50
2019-03-15T08:53:14.333Z,59.40
2019-03-15T08:55:57.844Z,59.00
2019-03-15T08:58:46.897Z,58.70
2019-03-15T09:01:29.894Z,58.40
2019-03-15T09:04:21.602Z,58.50
2019-03-15T09:06:58.014Z,58.70
2019-03-15T09:09:47.515Z,57.80
2019-03-15T09:12:24.232Z,57.60
2019-03-15T09:15:15.903Z,56.30
2019-03-15T09:17:57.962Z,55.10
2019-03-15T09:20:42.049Z,55.60
2019-03-15T09:23:37.160Z,55.80
2019-03-15T09:26:32.087Z,55.60
2019-03-15T09:29:29.054Z,54.80
2019-03-15T09:32:24.463Z,53.80
2019-03-15T09:35:20.540Z,55.00
2019-03-15T09:38:17.281Z,53.40
2019-03-15T09:41:12.477Z,52.60
2019-03-15T09:44:08.093Z,51.90
2019-03-15T09:47:04.766Z,52.10
2019-03-15T09:49:54.018Z,54.10
2019-03-15T09:52:30.772Z,55.10
2019-03-15T09:55:32.347Z,54.80
2019-03-15T09:58:05.781Z,55.00
2019-03-15T10:01:01.296Z,54.20
2019-03-15T10:03:51.191Z,53.90
2019-03-15T10:06:33.886Z,54.20
2019-03-15T10:09:30.467Z,53.80
2019-03-15T10:12:19.800Z,53.60
2019-03-15T10:15:02.899Z,54.10
2019-03-15T10:17:51.151Z,54.30
2019-03-15T10:20:34.267Z,54.70
2019-03-15T10:23:23.250Z,55.10
2019-03-15T10:26:14.973Z,54.90
2019-03-15T10:28:51.312Z,55.00
2019-03-15T10:31:41.320Z,54.80
2019-03-15T10:34:17.896Z,54.70
2019-03-15T10:37:08.359Z,54.40
2019-03-15T10:39:44.938Z,54.80
2019-03-15T10:42:35.357Z,54.20
2019-03-15T10:45:16.210Z,54.30
2019-03-15T10:48:08.217Z,54.00
2019-03-15T10:50:45.128Z,53.40
2019-03-15T10:53:35.619Z,52.70
2019-03-15T10:56:12.510Z,52.90
2019-03-15T10:59:03.223Z,53.40
2019-03-15T11:01:40.162Z,51.80
2019-03-15T11:04:30.407Z,50.50
2019-03-15T11:07:13.637Z,52.10
2019-03-15T11:10:09.985Z,51.80
2019-03-15T11:13:05.379Z,51.20
2019-03-15T11:16:00.939Z,52.50
2019-03-15T11:18:50.779Z,51.80
2019-03-15T11:21:26.719Z,51.00
2019-03-15T11:24:23.524Z,51.50
2019-03-15T11:27:21.199Z,51.30
2019-03-15T11:30:13.886Z,51.00
2019-03-15T11:32:50.782Z,51.20
2019-03-15T11:35:42.787Z,51.40
2019-03-15T11:38:26.091Z,51.80
2019-03-15T11:41:09.174Z,50.90
2019-03-15T11:43:53.237Z,50.30
2019-03-15T11:46:36.645Z,50.80
2019-03-15T11:49:28.239Z,50.80
2019-03-15T11:52:08.487Z,50.70
2019-03-15T11:54:59.019Z,50.00
2019-03-15T11:57:41.830Z,49.80
2019-03-15T12:00:28.145Z,50.10
2019-03-15T12:03:11.027Z,50.30
2019-03-15T12:05:53.394Z,50.80
2019-03-15T12:08:36.981Z,50.80
2019-03-15T12:11:20.726Z,50.90
2019-03-15T12:14:09.954Z,50.70
2019-03-15T12:16:59.276Z,51.00
2019-03-15T12:19:36.250Z,50.00
2019-03-15T12:22:26.593Z,50.70
2019-03-15T12:25:11.027Z,50.80
2019-03-15T12:27:54.982Z,50.30
2019-03-15T12:30:37.848Z,50.20
2019-03-15T12:33:20.326Z,50.50
2019-03-15T12:36:05.760Z,50.50
2019-03-15T12:38:51.947Z,50.20
2019-03-15T12:41:36.622Z,50.90
2019-03-15T12:44:19.705Z,50.30
2019-03-15T12:47:06.056Z,49.80
2019-03-15T12:49:50.204Z,49.60
2019-03-15T12:52:46.587Z,49.40
2019-03-15T12:55:33.985Z,48.90
2019-03-15T12:58:17.539Z,48.20
2019-03-15T13:01:08.928Z,49.20
2019-03-15T13:03:52.919Z,48.80
2019-03-15T13:06:43.174Z,48.90
2019-03-15T13:09:27.493Z,48.00
2019-03-15T13:12:22.604Z,47.30
2019-03-15T13:14:59.048Z,47.50
2019-03-15T13:17:49.450Z,46.70
2019-03-15T13:20:35.228Z,47.20
2019-03-15T13:23:25.158Z,47.10
2019-03-15T13:26:20.215Z,46.70
2019-03-15T13:29:09.455Z,46.10
2019-03-15T13:31:52.135Z,46.10
2019-03-15T13:34:42.249Z,45.50
2019-03-15T13:37:26.309Z,45.90
2019-03-15T13:40:24.734Z,45.30
2019-03-15T13:43:02.077Z,44.80
2019-03-15T13:45:55.157Z,44.70
2019-03-15T13:48:31.564Z,44.90
2019-03-15T13:51:22.853Z,44.90
2019-03-15T13:54:06.610Z,45.30
2019-03-15T13:56:57.122Z,45.10
2019-03-15T13:59:41.351Z,45.00
2019-03-15T14:02:25.484Z,44.60
2019-03-15T14:05:16.077Z,44.00
2019-03-15T14:08:11.656Z,44.10
2019-03-15T14:10:55.435Z,44.00
2019-03-15T14:13:31.963Z,44.20
2019-03-15T14:16:21.131Z,44.10
2019-03-15T14:18:57.634Z,43.60
2019-03-15T14:21:48.792Z,43.40
2019-03-15T14:24:25.071Z,43.80
2019-03-15T14:27:15.893Z,44.00
2019-03-15T14:30:05.357Z,43.40
2019-03-15T14:32:47.675Z,44.10
2019-03-15T14:35:31.289Z,43.50
2019-03-15T14:38:14.411Z,43.00
2019-03-15T14:40:57.512Z,42.60
2019-03-15T14:43:46.847Z,42.30
2019-03-15T14:46:30.818Z,42.60
2019-03-15T14:49:13.135Z,42.70
2019-03-15T14:51:59.169Z,43.00
2019-03-15T14:54:47.413Z,42.70
2019-03-15T14:57:30.381Z,41.90
2019-03-15T15:00:19.860Z,42.20
2019-03-15T15:03:09.844Z,41.60
2019-03-15T15:05:52.953Z,41.30
2019-03-15T15:08:50.144Z,42.10
2019-03-15T15:11:39.479Z,41.50
2019-03-15T15:14:23.125Z,41.80
2019-03-15T15:17:18.425Z,42.40
2019-03-15T15:20:13.881Z,42.60
2019-03-15T15:23:08.830Z,43.20
2019-03-15T15:25:59.555Z,43.30
2019-03-15T15:28:37.929Z,43.50
2019-03-15T15:31:27.679Z,43.20
2019-03-15T15:34:04.645Z,43.80
2019-03-15T15:36:55.259Z,43.20
2019-03-15T15:39:38.902Z,43.60
2019-03-15T15:42:29.184Z,43.80
2019-03-15T15:45:13.658Z,43.50
2019-03-15T15:48:09.304Z,43.70
2019-03-15T15:50:59.038Z,43.80
2019-03-15T15:53:42.334Z,44.10
2019-03-15T15:56:25.590Z,43.90
2019-03-15T15:59:15.241Z,43.90
2019-03-15T16:02:10.448Z,44.00
2019-03-15T16:04:54.486Z,43.90
2019-03-15T16:07:44.937Z,44.10
2019-03-15T16:10:21.668Z,44.10
2019-03-15T16:13:17.303Z,44.30
2019-03-15T16:15:56.987Z,44.40
2019-03-15T16:18:41.237Z,44.30
2019-03-15T16:21:25.158Z,44.60
2019-03-15T16:24:11.139Z,44.80
2019-03-15T16:26:56.033Z,45.10
2019-03-15T16:29:45.806Z,45.60
2019-03-15T16:32:29.082Z,45.70
2019-03-15T16:35:16.299Z,45.90
2019-03-15T16:37:59.779Z,45.90
2019-03-15T16:40:43.031Z,46.00
2019-03-15T16:43:26.410Z,46.30
2019-03-15T16:46:09.219Z,47.20
2019-03-15T16:48:53.942Z,46.80
2019-03-15T16:51:30.938Z,46.90
2019-03-15T16:54:27.462Z,47.20
2019-03-15T16:57:23.800Z,47.20
2019-03-15T17:00:19.333Z,47.50
2019-03-15T17:02:55.576Z,47.80
2019-03-15T17:05:46.403Z,47.00
2019-03-15T17:08:22.877Z,46.90
2019-03-15T17:11:13.814Z,47.10
2019-03-15T17:13:58.447Z,47.20
2019-03-15T17:16:48.785Z,47.20
2019-03-15T17:19:31.786Z,47.30
2019-03-15T17:22:27.380Z,48.70
2019-03-15T17:25:25.232Z,49.70
2019-03-15T17:28:15.456Z,50.80
2019-03-15T17:31:08.779Z,51.70
2019-03-15T17:33:46.583Z,52.20
2019-03-15T17:36:23.504Z,52.60
2019-03-15T17:39:14.777Z,53.10
2019-03-15T17:41:52.182Z,53.40
2019-03-15T17:44:41.588Z,53.60
2019-03-15T17:47:24.985Z,53.80
2019-03-15T17:50:20.337Z,54.20
2019-03-15T17:52:57.932Z,54.60
2019-03-15T17:55:47.507Z,54.80
2019-03-15T17:58:30.906Z,54.90
2019-03-15T18:01:27.959Z,55.10
2019-03-15T18:04:23.246Z,55.10
2019-03-15T18:07:15.711Z,55.30
2019-03-15T18:10:00.058Z,55.90
2019-03-15T18:12:55.891Z,56.60
2019-03-15T18:15:53.789Z,57.40
2019-03-15T18:18:49.617Z,58.10
2019-03-15T18:21:45.476Z,58.60
2019-03-15T18:24:36.779Z,58.90
2019-03-15T18:27:13.458Z,59.30
2019-03-15T18:30:10.147Z,59.70
2019-03-15T18:33:07.556Z,60.00
2019-03-15T18:36:02.775Z,60.30
2019-03-15T18:38:58.118Z,60.20
2019-03-15T18:41:53.600Z,60.50
2019-03-15T18:44:49.455Z,61.40
2019-03-15T18:47:44.828Z,61.60
2019-03-15T18:50:37.049Z,61.50
2019-03-15T18:53:27.550Z,61.90
2019-03-15T18:56:24.696Z,62.60
2019-03-15T18:59:14.026Z,62.80
2019-03-15T19:01:50.815Z,62.70
2019-03-15T19:04:41.155Z,62.50
2019-03-15T19:07:17.086Z,62.40
2019-03-15T19:10:06.422Z,62.90
2019-03-15T19:12:42.425Z,63.20
2019-03-15T19:15:32.836Z,63.10
2019-03-15T19:18:09.803Z,63.30
2019-03-15T19:21:01.299Z,63.50
2019-03-15T19:23:37.360Z,63.60
2019-03-15T19:26:28.961Z,63.30
2019-03-15T19:29:06.430Z,64.00
2019-03-15T19:31:57.098Z,64.00
2019-03-15T19:34:33.385Z,64.10
2019-03-15T19:37:23.426Z,64.10
2019-03-15T19:40:05.878Z,64.60
2019-03-15T19:42:49.440Z,64.70
2019-03-15T19:45:32.216Z,65.10
2019-03-15T19:48:17.250Z,65.10
2019-03-15T19:51:00.322Z,64.50
2019-03-15T19:53:44.858Z,64.50
2019-03-15T19:56:34.291Z,64.80
2019-03-15T19:59:17.969Z,64.50
2019-03-15T20:02:00.848Z,64.50
2019-03-15T20:04:43.863Z,65.40
2019-03-15T20:07:26.273Z,65.50
2019-03-15T20:10:10.944Z,65.60
2019-03-15T20:13:02.681Z,65.40
2019-03-15T20:15:43.065Z,65.70
2019-03-15T20:18:33.715Z,65.20
2019-03-15T20:21:12.284Z,65.60
2019-03-15T20:24:02.365Z,66.50
2019-03-15T20:26:39.556Z,65.90
2019-03-15T20:29:29.271Z,66.50
2019-03-15T20:32:19.322Z,66.40
2019-03-15T20:35:09.830Z,66.50
2019-03-15T20:37:46.988Z,66.40
2019-03-15T20:40:36.830Z,66.90
2019-03-15T20:43:20.347Z,66.70
2019-03-15T20:46:16.474Z,66.60
2019-03-15T20:49:13.236Z,66.70
2019-03-15T20:52:07.257Z,66.90
2019-03-15T20:54:45.023Z,66.60
2019-03-15T20:57:35.542Z,66.80
2019-03-15T21:00:15.997Z,67.00
2019-03-15T21:03:06.091Z,67.00
2019-03-15T21:05:43.768Z,67.20
2019-03-15T21:08:33.628Z,68.10
2019-03-15T21:11:11.316Z,67.30
2019-03-15T21:14:00.940Z,67.10
2019-03-15T21:16:37.917Z,67.10
2019-03-15T21:19:27.928Z,67.20
2019-03-15T21:22:04.640Z,67.00
2019-03-15T21:24:53.955Z,67.10
2019-03-15T21:27:37.760Z,67.30
2019-03-15T21:30:33.341Z,67.90
2019-03-15T21:33:16.536Z,67.80
2019-03-15T21:36:01.876Z,68.50
2019-03-15T21:38:48.425Z,68.40
2019-03-15T21:41:30.709Z,68.10
2019-03-15T21:44:13.610Z,67.90
2019-03-15T21:47:00.386Z,68.10
2019-03-15T21:49:44.434Z,67.90
2019-03-15T21:52:32.222Z,67.90
2019-03-15T21:55:16.269Z,68.00
2019-03-15T21:58:13.008Z,68.90
2019-03-15T22:01:03.555Z,68.80
2019-03-15T22:03:40.426Z,68.90
2019-03-15T22:06:30.581Z,69.80
2019-03-15T22:09:08.103Z,70.10
2019-03-15T22:11:57.762Z,70.00
2019-03-15T22:14:34.920Z,69.20
2019-03-15T22:17:25.372Z,68.90
2019-03-15T22:20:02.554Z,68.90
2019-03-15T22:22:53.362Z,69.30
2019-03-15T22:25:30.190Z,69.40
2019-03-15T22:28:20.233Z,70.40
2019-03-15T22:30:56.193Z,70.10
2019-03-15T22:33:46.779Z,70.60
2019-03-15T22:36:29.934Z,70.70
2019-03-15T22:39:13.629Z,70.80
2019-03-15T22:41:57.117Z,70.90
2019-03-15T22:44:40.331Z,70.90
2019-03-15T22:47:24.329Z,71.00
2019-03-15T22:50:07.427Z,71.50
2019-03-15T22:52:51.503Z,72.60
2019-03-15T22:55:35.674Z,73.10
2019-03-15T22:58:19.711Z,73.00
2019-03-15T23:01:03.451Z,73.20
2019-03-15T23:03:52.876Z,72.70
2019-03-15T23:06:37.311Z,72.80
2019-03-15T23:09:21.410Z,74.00
2019-03-15T23:12:04.851Z,73.60
2019-03-15T23:14:47.177Z,74.60
2019-03-15T23:17:37.492Z,74.10
2019-03-15T23:20:23.543Z,73.80
2019-03-15T23:23:23.719Z,73.80
2019-03-15T23:26:11.660Z,73.40
2019-03-15T23:28:48.595Z,73.70
2019-03-15T23:31:43.879Z,73.40
2019-03-15T23:34:18.214Z,73.30
2019-03-15T23:37:07.938Z,74.30
2019-03-15T23:39:51.269Z,74.00
2019-03-15T23:42:46.365Z,73.10
2019-03-15T23:45:42.406Z,72.60
2019-03-15T23:48:31.915Z,72.70
2019-03-15T23:51:08.166Z,72.70
2019-03-15T23:53:58.626Z,72.50
2019-03-15T23:56:34.789Z,72.90
2019-03-15T23:59:25.150Z,74.50
